sensor_id;sensor_type;location;lat;lon;timestamp;temperature;humidity
70271;SHT31;57680;54.292;18.598;2023-06-19T00:02:09;15.20;92.54
70271;SHT31;57680;54.292;18.598;2023-06-19T00:04:35;15.06;92.97
70271;SHT31;57680;54.292;18.598;2023-06-19T00:07:03;14.98;93.18
70271;SHT31;57680;54.292;18.598;2023-06-19T00:09:28;14.88;93.47
70271;SHT31;57680;54.292;18.598;2023-06-19T00:11:54;14.82;94.09
70271;SHT31;57680;54.292;18.598;2023-06-19T00:14:19;14.69;94.22
70271;SHT31;57680;54.292;18.598;2023-06-19T00:16:45;14.58;94.57
70271;SHT31;57680;54.292;18.598;2023-06-19T00:19:10;14.46;95.28
70271;SHT31;57680;54.292;18.598;2023-06-19T00:21:36;14.41;95.56
70271;SHT31;57680;54.292;18.598;2023-06-19T00:24:01;14.38;95.59
70271;SHT31;57680;54.292;18.598;2023-06-19T00:26:27;14.31;95.57
70271;SHT31;57680;54.292;18.598;2023-06-19T00:28:52;14.34;95.84
70271;SHT31;57680;54.292;18.598;2023-06-19T00:31:19;14.35;95.86
70271;SHT31;57680;54.292;18.598;2023-06-19T00:33:45;14.40;95.54
70271;SHT31;57680;54.292;18.598;2023-06-19T00:36:11;14.38;95.59
70271;SHT31;57680;54.292;18.598;2023-06-19T00:38:38;14.34;95.18
70271;SHT31;57680;54.292;18.598;2023-06-19T00:41:04;14.23;94.81
70271;SHT31;57680;54.292;18.598;2023-06-19T00:43:30;14.16;94.95
70271;SHT31;57680;54.292;18.598;2023-06-19T00:45:57;14.13;95.47
70271;SHT31;57680;54.292;18.598;2023-06-19T00:48:23;14.10;95.65
70271;SHT31;57680;54.292;18.598;2023-06-19T00:50:49;14.12;95.66
70271;SHT31;57680;54.292;18.598;2023-06-19T00:53:15;14.09;95.60
70271;SHT31;57680;54.292;18.598;2023-06-19T00:55:43;14.12;95.68
70271;SHT31;57680;54.292;18.598;2023-06-19T00:58:09;14.07;95.62
70271;SHT31;57680;54.292;18.598;2023-06-19T01:00:35;14.09;95.61
70271;SHT31;57680;54.292;18.598;2023-06-19T01:03:01;14.06;95.82
70271;SHT31;57680;54.292;18.598;2023-06-19T01:05:26;14.09;95.65
70271;SHT31;57680;54.292;18.598;2023-06-19T01:10:42;14.12;95.23
70271;SHT31;57680;54.292;18.598;2023-06-19T01:13:21;14.14;95.25
70271;SHT31;57680;54.292;18.598;2023-06-19T01:15:48;14.17;94.84
70271;SHT31;57680;54.292;18.598;2023-06-19T01:18:14;14.12;94.80
70271;SHT31;57680;54.292;18.598;2023-06-19T01:20:40;14.04;95.04
70271;SHT31;57680;54.292;18.598;2023-06-19T01:23:10;14.06;95.33
70271;SHT31;57680;54.292;18.598;2023-06-19T01:25:35;14.03;95.08
70271;SHT31;57680;54.292;18.598;2023-06-19T01:28:02;14.03;95.42
70271;SHT31;57680;54.292;18.598;2023-06-19T01:30:28;14.04;95.36
70271;SHT31;57680;54.292;18.598;2023-06-19T01:32:58;13.97;94.92
70271;SHT31;57680;54.292;18.598;2023-06-19T01:35:27;13.96;95.13
70271;SHT31;57680;54.292;18.598;2023-06-19T01:37:54;13.94;95.22
70271;SHT31;57680;54.292;18.598;2023-06-19T01:40:19;13.90;95.21
70271;SHT31;57680;54.292;18.598;2023-06-19T01:42:45;13.90;95.17
70271;SHT31;57680;54.292;18.598;2023-06-19T01:45:11;13.87;95.38
70271;SHT31;57680;54.292;18.598;2023-06-19T01:47:37;13.91;95.49
70271;SHT31;57680;54.292;18.598;2023-06-19T01:50:02;13.89;95.56
70271;SHT31;57680;54.292;18.598;2023-06-19T01:52:28;14.00;96.33
70271;SHT31;57680;54.292;18.598;2023-06-19T01:54:53;14.07;95.68
70271;SHT31;57680;54.292;18.598;2023-06-19T01:57:19;14.02;95.08
70271;SHT31;57680;54.292;18.598;2023-06-19T01:59:44;13.97;95.09
70271;SHT31;57680;54.292;18.598;2023-06-19T02:02:10;13.93;94.96
70271;SHT31;57680;54.292;18.598;2023-06-19T02:04:35;13.91;95.20
70271;SHT31;57680;54.292;18.598;2023-06-19T02:07:02;13.89;95.24
70271;SHT31;57680;54.292;18.598;2023-06-19T02:09:27;13.91;94.93
70271;SHT31;57680;54.292;18.598;2023-06-19T02:11:53;13.83;94.80
70271;SHT31;57680;54.292;18.598;2023-06-19T02:14:18;13.76;95.15
70271;SHT31;57680;54.292;18.598;2023-06-19T02:16:44;13.70;95.65
70271;SHT31;57680;54.292;18.598;2023-06-19T02:19:10;13.86;97.13
70271;SHT31;57680;54.292;18.598;2023-06-19T02:21:36;13.82;95.13
70271;SHT31;57680;54.292;18.598;2023-06-19T02:24:02;13.89;95.92
70271;SHT31;57680;54.292;18.598;2023-06-19T02:26:27;13.87;95.51
70271;SHT31;57680;54.292;18.598;2023-06-19T02:28:53;13.91;95.32
70271;SHT31;57680;54.292;18.598;2023-06-19T02:31:18;14.03;96.29
70271;SHT31;57680;54.292;18.598;2023-06-19T02:33:44;14.06;95.14
70271;SHT31;57680;54.292;18.598;2023-06-19T02:36:09;14.12;95.41
70271;SHT31;57680;54.292;18.598;2023-06-19T02:38:35;14.10;94.65
70271;SHT31;57680;54.292;18.598;2023-06-19T02:41:00;13.99;94.38
70271;SHT31;57680;54.292;18.598;2023-06-19T02:43:26;13.89;94.10
70271;SHT31;57680;54.292;18.598;2023-06-19T02:45:51;13.80;94.40
70271;SHT31;57680;54.292;18.598;2023-06-19T02:48:17;13.84;94.57
70271;SHT31;57680;54.292;18.598;2023-06-19T02:50:42;14.10;94.46
70271;SHT31;57680;54.292;18.598;2023-06-19T02:53:08;14.20;93.62
70271;SHT31;57680;54.292;18.598;2023-06-19T02:55:33;14.14;93.86
70271;SHT31;57680;54.292;18.598;2023-06-19T02:57:59;14.14;94.08
70271;SHT31;57680;54.292;18.598;2023-06-19T03:00:24;14.14;93.88
70271;SHT31;57680;54.292;18.598;2023-06-19T03:02:50;14.14;93.53
70271;SHT31;57680;54.292;18.598;2023-06-19T03:05:15;14.20;93.57
70271;SHT31;57680;54.292;18.598;2023-06-19T03:07:41;14.72;93.40
70271;SHT31;57680;54.292;18.598;2023-06-19T03:10:07;14.86;92.19
70271;SHT31;57680;54.292;18.598;2023-06-19T03:12:33;15.29;91.10
70271;SHT31;57680;54.292;18.598;2023-06-19T03:14:58;15.95;88.98
70271;SHT31;57680;54.292;18.598;2023-06-19T03:17:23;16.41;86.50
70271;SHT31;57680;54.292;18.598;2023-06-19T03:19:49;16.74;85.09
70271;SHT31;57680;54.292;18.598;2023-06-19T03:22:14;17.14;84.06
70271;SHT31;57680;54.292;18.598;2023-06-19T03:24:40;17.36;82.48
70271;SHT31;57680;54.292;18.598;2023-06-19T03:27:06;17.71;81.06
70271;SHT31;57680;54.292;18.598;2023-06-19T03:29:31;17.93;80.80
70271;SHT31;57680;54.292;18.598;2023-06-19T03:31:58;18.07;79.39
70271;SHT31;57680;54.292;18.598;2023-06-19T03:34:23;18.23;79.11
70271;SHT31;57680;54.292;18.598;2023-06-19T03:36:48;18.61;79.35
70271;SHT31;57680;54.292;18.598;2023-06-19T03:39:14;19.19;77.60
70271;SHT31;57680;54.292;18.598;2023-06-19T03:41:39;19.64;76.13
70271;SHT31;57680;54.292;18.598;2023-06-19T03:44:05;19.77;74.74
70271;SHT31;57680;54.292;18.598;2023-06-19T03:46:30;19.87;73.71
70271;SHT31;57680;54.292;18.598;2023-06-19T03:48:56;19.95;73.96
70271;SHT31;57680;54.292;18.598;2023-06-19T03:51:21;20.12;73.82
70271;SHT31;57680;54.292;18.598;2023-06-19T03:53:47;20.55;74.07
70271;SHT31;57680;54.292;18.598;2023-06-19T03:56:12;20.76;72.73
70271;SHT31;57680;54.292;18.598;2023-06-19T03:58:38;20.93;72.20
70271;SHT31;57680;54.292;18.598;2023-06-19T04:01:03;21.04;71.71
70271;SHT31;57680;54.292;18.598;2023-06-19T04:03:29;21.23;71.01
70271;SHT31;57680;54.292;18.598;2023-06-19T04:05:54;21.41;70.40
70271;SHT31;57680;54.292;18.598;2023-06-19T04:08:19;22.05;68.97
70271;SHT31;57680;54.292;18.598;2023-06-19T04:10:45;22.47;67.01
70271;SHT31;57680;54.292;18.598;2023-06-19T04:13:12;22.91;66.85
70271;SHT31;57680;54.292;18.598;2023-06-19T04:15:37;23.28;66.35
70271;SHT31;57680;54.292;18.598;2023-06-19T04:18:03;23.52;64.70
70271;SHT31;57680;54.292;18.598;2023-06-19T04:20:28;23.66;63.66
70271;SHT31;57680;54.292;18.598;2023-06-19T04:22:54;23.70;64.35
70271;SHT31;57680;54.292;18.598;2023-06-19T04:25:19;23.76;64.13
70271;SHT31;57680;54.292;18.598;2023-06-19T04:27:45;23.90;64.57
70271;SHT31;57680;54.292;18.598;2023-06-19T04:30:11;24.16;63.46
70271;SHT31;57680;54.292;18.598;2023-06-19T04:32:37;24.10;62.97
70271;SHT31;57680;54.292;18.598;2023-06-19T04:35:03;24.03;63.11
70271;SHT31;57680;54.292;18.598;2023-06-19T04:37:28;23.87;64.40
70271;SHT31;57680;54.292;18.598;2023-06-19T04:39:54;24.25;63.86
70271;SHT31;57680;54.292;18.598;2023-06-19T04:42:20;24.41;63.14
70271;SHT31;57680;54.292;18.598;2023-06-19T04:44:46;24.38;63.07
70271;SHT31;57680;54.292;18.598;2023-06-19T04:47:12;24.24;63.05
70271;SHT31;57680;54.292;18.598;2023-06-19T04:49:37;24.34;63.28
70271;SHT31;57680;54.292;18.598;2023-06-19T04:52:03;24.54;62.08
70271;SHT31;57680;54.292;18.598;2023-06-19T04:54:29;24.45;61.79
70271;SHT31;57680;54.292;18.598;2023-06-19T04:56:54;24.51;62.44
70271;SHT31;57680;54.292;18.598;2023-06-19T04:59:20;24.68;62.68
70271;SHT31;57680;54.292;18.598;2023-06-19T05:01:45;24.59;62.76
70271;SHT31;57680;54.292;18.598;2023-06-19T05:04:10;24.75;62.48
70271;SHT31;57680;54.292;18.598;2023-06-19T05:06:36;24.93;62.48
70271;SHT31;57680;54.292;18.598;2023-06-19T05:09:02;25.22;62.77
70271;SHT31;57680;54.292;18.598;2023-06-19T05:11:27;25.29;62.86
70271;SHT31;57680;54.292;18.598;2023-06-19T05:13:53;25.50;62.13
70271;SHT31;57680;54.292;18.598;2023-06-19T05:16:19;25.53;61.00
70271;SHT31;57680;54.292;18.598;2023-06-19T05:18:44;25.57;59.71
70271;SHT31;57680;54.292;18.598;2023-06-19T05:21:09;25.81;60.33
70271;SHT31;57680;54.292;18.598;2023-06-19T05:23:35;26.06;59.18
70271;SHT31;57680;54.292;18.598;2023-06-19T05:26:00;25.99;58.99
70271;SHT31;57680;54.292;18.598;2023-06-19T05:28:26;26.21;58.10
70271;SHT31;57680;54.292;18.598;2023-06-19T05:30:51;26.09;56.66
70271;SHT31;57680;54.292;18.598;2023-06-19T05:33:17;26.35;56.50
70271;SHT31;57680;54.292;18.598;2023-06-19T05:35:43;26.40;53.71
70271;SHT31;57680;54.292;18.598;2023-06-19T05:38:08;26.67;55.47
70271;SHT31;57680;54.292;18.598;2023-06-19T05:40:34;26.64;54.37
70271;SHT31;57680;54.292;18.598;2023-06-19T05:42:59;26.97;53.94
70271;SHT31;57680;54.292;18.598;2023-06-19T05:45:24;27.08;54.30
70271;SHT31;57680;54.292;18.598;2023-06-19T05:47:50;27.14;52.39
70271;SHT31;57680;54.292;18.598;2023-06-19T05:50:15;26.93;54.03
70271;SHT31;57680;54.292;18.598;2023-06-19T05:52:41;26.83;53.68
70271;SHT31;57680;54.292;18.598;2023-06-19T05:55:07;26.82;55.59
70271;SHT31;57680;54.292;18.598;2023-06-19T05:57:32;26.93;55.38
70271;SHT31;57680;54.292;18.598;2023-06-19T05:59:58;26.90;55.75
70271;SHT31;57680;54.292;18.598;2023-06-19T06:02:24;27.10;55.52
70271;SHT31;57680;54.292;18.598;2023-06-19T06:04:50;26.96;55.09
70271;SHT31;57680;54.292;18.598;2023-06-19T06:07:15;27.11;55.44
70271;SHT31;57680;54.292;18.598;2023-06-19T06:09:41;27.24;54.01
70271;SHT31;57680;54.292;18.598;2023-06-19T06:12:06;27.08;53.53
70271;SHT31;57680;54.292;18.598;2023-06-19T06:14:32;27.01;55.21
70271;SHT31;57680;54.292;18.598;2023-06-19T06:16:57;26.94;55.47
70271;SHT31;57680;54.292;18.598;2023-06-19T06:19:23;27.04;56.10
70271;SHT31;57680;54.292;18.598;2023-06-19T06:21:49;27.03;54.92
70271;SHT31;57680;54.292;18.598;2023-06-19T06:24:15;27.08;54.60
70271;SHT31;57680;54.292;18.598;2023-06-19T06:26:40;27.03;56.93
70271;SHT31;57680;54.292;18.598;2023-06-19T06:29:06;26.93;53.90
70271;SHT31;57680;54.292;18.598;2023-06-19T06:31:31;27.24;53.63
70271;SHT31;57680;54.292;18.598;2023-06-19T06:33:57;27.07;54.49
70271;SHT31;57680;54.292;18.598;2023-06-19T06:36:22;26.84;53.59
70271;SHT31;57680;54.292;18.598;2023-06-19T06:38:47;27.07;53.56
70271;SHT31;57680;54.292;18.598;2023-06-19T06:41:13;26.98;53.90
70271;SHT31;57680;54.292;18.598;2023-06-19T06:43:40;27.23;53.65
70271;SHT31;57680;54.292;18.598;2023-06-19T06:46:06;26.88;54.22
70271;SHT31;57680;54.292;18.598;2023-06-19T06:48:31;26.70;51.27
70271;SHT31;57680;54.292;18.598;2023-06-19T06:50:57;26.56;53.70
70271;SHT31;57680;54.292;18.598;2023-06-19T06:53:22;26.35;52.18
70271;SHT31;57680;54.292;18.598;2023-06-19T06:55:47;26.21;51.40
70271;SHT31;57680;54.292;18.598;2023-06-19T06:58:13;26.14;53.09
70271;SHT31;57680;54.292;18.598;2023-06-19T07:00:38;26.18;53.04
70271;SHT31;57680;54.292;18.598;2023-06-19T07:03:04;26.55;55.61
70271;SHT31;57680;54.292;18.598;2023-06-19T07:05:29;26.55;53.23
70271;SHT31;57680;54.292;18.598;2023-06-19T07:07:55;26.49;52.99
70271;SHT31;57680;54.292;18.598;2023-06-19T07:10:20;26.64;56.27
70271;SHT31;57680;54.292;18.598;2023-06-19T07:12:47;26.83;55.13
70271;SHT31;57680;54.292;18.598;2023-06-19T07:15:12;27.03;53.09
70271;SHT31;57680;54.292;18.598;2023-06-19T07:17:38;27.01;50.43
70271;SHT31;57680;54.292;18.598;2023-06-19T07:20:04;27.01;53.31
70271;SHT31;57680;54.292;18.598;2023-06-19T07:22:29;27.38;52.44
70271;SHT31;57680;54.292;18.598;2023-06-19T07:24:55;27.00;51.68
70271;SHT31;57680;54.292;18.598;2023-06-19T07:27:21;27.06;50.49
70271;SHT31;57680;54.292;18.598;2023-06-19T07:29:46;27.04;52.33
70271;SHT31;57680;54.292;18.598;2023-06-19T07:32:12;27.07;51.16
70271;SHT31;57680;54.292;18.598;2023-06-19T07:34:37;27.34;50.67
70271;SHT31;57680;54.292;18.598;2023-06-19T07:37:03;27.24;49.60
70271;SHT31;57680;54.292;18.598;2023-06-19T07:39:28;27.51;49.93
70271;SHT31;57680;54.292;18.598;2023-06-19T07:41:54;27.68;49.89
70271;SHT31;57680;54.292;18.598;2023-06-19T07:44:19;27.89;48.61
70271;SHT31;57680;54.292;18.598;2023-06-19T07:46:45;27.39;47.50
70271;SHT31;57680;54.292;18.598;2023-06-19T07:49:10;27.35;48.83
70271;SHT31;57680;54.292;18.598;2023-06-19T07:51:36;27.28;47.69
70271;SHT31;57680;54.292;18.598;2023-06-19T07:54:01;27.58;49.59
70271;SHT31;57680;54.292;18.598;2023-06-19T07:56:27;27.55;50.39
70271;SHT31;57680;54.292;18.598;2023-06-19T07:58:52;27.65;51.29
70271;SHT31;57680;54.292;18.598;2023-06-19T08:01:17;27.54;50.44
70271;SHT31;57680;54.292;18.598;2023-06-19T08:03:43;27.85;51.20
70271;SHT31;57680;54.292;18.598;2023-06-19T08:06:08;27.97;50.91
70271;SHT31;57680;54.292;18.598;2023-06-19T08:08:34;28.07;48.07
70271;SHT31;57680;54.292;18.598;2023-06-19T08:11:00;27.75;47.22
70271;SHT31;57680;54.292;18.598;2023-06-19T08:13:25;27.99;49.90
70271;SHT31;57680;54.292;18.598;2023-06-19T08:15:51;28.09;49.33
70271;SHT31;57680;54.292;18.598;2023-06-19T08:18:17;27.72;48.68
70271;SHT31;57680;54.292;18.598;2023-06-19T08:20:42;27.25;49.21
70271;SHT31;57680;54.292;18.598;2023-06-19T08:23:08;26.84;49.98
70271;SHT31;57680;54.292;18.598;2023-06-19T08:25:33;26.60;49.33
70271;SHT31;57680;54.292;18.598;2023-06-19T08:27:59;26.60;53.85
70271;SHT31;57680;54.292;18.598;2023-06-19T08:30:25;26.75;54.18
70271;SHT31;57680;54.292;18.598;2023-06-19T08:32:51;26.69;53.69
70271;SHT31;57680;54.292;18.598;2023-06-19T08:35:16;26.93;53.23
70271;SHT31;57680;54.292;18.598;2023-06-19T08:37:41;26.88;54.06
70271;SHT31;57680;54.292;18.598;2023-06-19T08:40:08;27.11;53.28
70271;SHT31;57680;54.292;18.598;2023-06-19T08:42:33;27.30;52.61
70271;SHT31;57680;54.292;18.598;2023-06-19T08:44:59;27.44;51.47
70271;SHT31;57680;54.292;18.598;2023-06-19T08:47:29;27.70;52.99
70271;SHT31;57680;54.292;18.598;2023-06-19T08:49:55;27.44;50.03
70271;SHT31;57680;54.292;18.598;2023-06-19T08:52:20;27.81;52.41
70271;SHT31;57680;54.292;18.598;2023-06-19T08:54:46;27.76;53.01
70271;SHT31;57680;54.292;18.598;2023-06-19T08:57:11;27.90;49.96
70271;SHT31;57680;54.292;18.598;2023-06-19T08:59:37;27.46;51.24
70271;SHT31;57680;54.292;18.598;2023-06-19T09:02:03;27.41;52.52
70271;SHT31;57680;54.292;18.598;2023-06-19T09:04:28;27.70;53.83
70271;SHT31;57680;54.292;18.598;2023-06-19T09:09:23;27.93;51.47
70271;SHT31;57680;54.292;18.598;2023-06-19T09:12:06;28.09;51.71
70271;SHT31;57680;54.292;18.598;2023-06-19T09:14:42;28.39;47.60
70271;SHT31;57680;54.292;18.598;2023-06-19T09:17:11;28.44;50.41
70271;SHT31;57680;54.292;18.598;2023-06-19T09:19:37;28.65;50.83
70271;SHT31;57680;54.292;18.598;2023-06-19T09:22:07;28.84;49.12
70271;SHT31;57680;54.292;18.598;2023-06-19T09:24:38;29.09;49.17
70271;SHT31;57680;54.292;18.598;2023-06-19T09:27:14;29.04;48.21
70271;SHT31;57680;54.292;18.598;2023-06-19T09:29:42;28.57;49.65
70271;SHT31;57680;54.292;18.598;2023-06-19T09:34:45;28.32;49.14
70271;SHT31;57680;54.292;18.598;2023-06-19T09:37:11;28.18;48.20
70271;SHT31;57680;54.292;18.598;2023-06-19T09:39:38;27.96;48.97
70271;SHT31;57680;54.292;18.598;2023-06-19T09:42:06;27.61;49.11
70271;SHT31;57680;54.292;18.598;2023-06-19T09:44:41;27.20;48.78
70271;SHT31;57680;54.292;18.598;2023-06-19T09:47:15;27.03;50.90
70271;SHT31;57680;54.292;18.598;2023-06-19T09:49:41;26.97;51.61
70271;SHT31;57680;54.292;18.598;2023-06-19T09:52:06;27.06;51.83
70271;SHT31;57680;54.292;18.598;2023-06-19T09:54:32;27.61;51.71
70271;SHT31;57680;54.292;18.598;2023-06-19T09:56:59;27.92;50.17
70271;SHT31;57680;54.292;18.598;2023-06-19T09:59:25;28.06;47.95
70271;SHT31;57680;54.292;18.598;2023-06-19T10:01:51;28.39;48.71
70271;SHT31;57680;54.292;18.598;2023-06-19T10:04:16;28.61;47.22
70271;SHT31;57680;54.292;18.598;2023-06-19T10:06:48;28.87;48.01
70271;SHT31;57680;54.292;18.598;2023-06-19T10:09:14;28.10;48.35
70271;SHT31;57680;54.292;18.598;2023-06-19T10:11:50;27.62;49.00
70271;SHT31;57680;54.292;18.598;2023-06-19T10:14:20;27.11;49.52
70271;SHT31;57680;54.292;18.598;2023-06-19T10:16:46;26.87;49.86
70271;SHT31;57680;54.292;18.598;2023-06-19T10:19:17;26.45;50.22
70271;SHT31;57680;54.292;18.598;2023-06-19T10:21:54;26.14;50.23
70271;SHT31;57680;54.292;18.598;2023-06-19T10:24:20;25.95;51.82
70271;SHT31;57680;54.292;18.598;2023-06-19T10:27:01;25.94;52.19
70271;SHT31;57680;54.292;18.598;2023-06-19T10:29:38;25.85;51.22
70271;SHT31;57680;54.292;18.598;2023-06-19T10:32:04;25.78;50.68
70271;SHT31;57680;54.292;18.598;2023-06-19T10:34:36;25.81;55.11
70271;SHT31;57680;54.292;18.598;2023-06-19T10:37:01;25.84;53.17
70271;SHT31;57680;54.292;18.598;2023-06-19T10:39:27;25.99;52.80
70271;SHT31;57680;54.292;18.598;2023-06-19T10:41:52;26.76;52.24
70271;SHT31;57680;54.292;18.598;2023-06-19T10:44:18;27.27;50.58
70271;SHT31;57680;54.292;18.598;2023-06-19T10:46:43;27.68;49.34
70271;SHT31;57680;54.292;18.598;2023-06-19T10:49:10;27.76;50.00
70271;SHT31;57680;54.292;18.598;2023-06-19T10:51:40;28.03;50.58
70271;SHT31;57680;54.292;18.598;2023-06-19T10:54:06;28.30;48.04
70271;SHT31;57680;54.292;18.598;2023-06-19T10:56:32;28.60;48.14
70271;SHT31;57680;54.292;18.598;2023-06-19T10:59:07;28.45;46.40
70271;SHT31;57680;54.292;18.598;2023-06-19T11:04:06;28.50;46.75
70271;SHT31;57680;54.292;18.598;2023-06-19T11:06:32;28.65;48.70
70271;SHT31;57680;54.292;18.598;2023-06-19T11:08:58;28.64;46.83
70271;SHT31;57680;54.292;18.598;2023-06-19T11:11:23;28.69;45.93
70271;SHT31;57680;54.292;18.598;2023-06-19T11:13:59;28.43;45.53
70271;SHT31;57680;54.292;18.598;2023-06-19T11:16:25;28.60;46.41
70271;SHT31;57680;54.292;18.598;2023-06-19T11:18:56;28.54;45.21
70271;SHT31;57680;54.292;18.598;2023-06-19T11:21:37;28.65;44.60
70271;SHT31;57680;54.292;18.598;2023-06-19T11:24:03;28.92;45.82
70271;SHT31;57680;54.292;18.598;2023-06-19T11:26:28;29.12;45.17
70271;SHT31;57680;54.292;18.598;2023-06-19T11:28:54;29.16;42.78
70271;SHT31;57680;54.292;18.598;2023-06-19T11:31:27;29.43;44.53
70271;SHT31;57680;54.292;18.598;2023-06-19T11:34:00;29.43;42.56
70271;SHT31;57680;54.292;18.598;2023-06-19T11:36:25;29.54;45.22
70271;SHT31;57680;54.292;18.598;2023-06-19T11:38:53;28.87;41.96
70271;SHT31;57680;54.292;18.598;2023-06-19T11:41:28;28.10;46.10
70271;SHT31;57680;54.292;18.598;2023-06-19T11:44:03;27.81;47.05
70271;SHT31;57680;54.292;18.598;2023-06-19T11:46:33;27.08;45.45
70271;SHT31;57680;54.292;18.598;2023-06-19T11:49:15;27.08;47.53
70271;SHT31;57680;54.292;18.598;2023-06-19T11:51:41;27.04;49.53
70271;SHT31;57680;54.292;18.598;2023-06-19T11:54:12;27.01;49.05
70271;SHT31;57680;54.292;18.598;2023-06-19T11:56:38;27.00;49.51
70271;SHT31;57680;54.292;18.598;2023-06-19T11:59:04;26.75;49.60
70271;SHT31;57680;54.292;18.598;2023-06-19T12:01:34;26.39;48.47
70271;SHT31;57680;54.292;18.598;2023-06-19T12:04:00;26.15;48.44
70271;SHT31;57680;54.292;18.598;2023-06-19T12:06:27;26.11;49.75
70271;SHT31;57680;54.292;18.598;2023-06-19T12:08:53;26.05;49.30
70271;SHT31;57680;54.292;18.598;2023-06-19T12:11:18;26.01;52.93
70271;SHT31;57680;54.292;18.598;2023-06-19T12:13:44;25.84;53.77
70271;SHT31;57680;54.292;18.598;2023-06-19T12:16:10;25.68;54.89
70271;SHT31;57680;54.292;18.598;2023-06-19T12:18:36;25.64;55.81
70271;SHT31;57680;54.292;18.598;2023-06-19T12:21:01;25.78;55.09
70271;SHT31;57680;54.292;18.598;2023-06-19T12:23:27;26.12;54.63
70271;SHT31;57680;54.292;18.598;2023-06-19T12:25:52;26.22;54.43
70271;SHT31;57680;54.292;18.598;2023-06-19T12:28:18;26.35;53.08
70271;SHT31;57680;54.292;18.598;2023-06-19T12:30:47;26.18;52.05
70271;SHT31;57680;54.292;18.598;2023-06-19T12:33:12;26.09;52.59
70271;SHT31;57680;54.292;18.598;2023-06-19T12:35:40;26.08;53.62
70271;SHT31;57680;54.292;18.598;2023-06-19T12:38:05;25.94;53.48
70271;SHT31;57680;54.292;18.598;2023-06-19T12:40:31;25.82;52.97
70271;SHT31;57680;54.292;18.598;2023-06-19T12:42:56;25.66;53.85
70271;SHT31;57680;54.292;18.598;2023-06-19T12:45:22;25.78;53.68
70271;SHT31;57680;54.292;18.598;2023-06-19T12:47:47;25.80;54.35
70271;SHT31;57680;54.292;18.598;2023-06-19T12:50:13;25.78;52.37
70271;SHT31;57680;54.292;18.598;2023-06-19T12:52:39;25.66;51.81
70271;SHT31;57680;54.292;18.598;2023-06-19T12:55:04;25.68;53.50
70271;SHT31;57680;54.292;18.598;2023-06-19T12:57:30;25.58;53.24
70271;SHT31;57680;54.292;18.598;2023-06-19T12:59:56;25.50;54.10
70271;SHT31;57680;54.292;18.598;2023-06-19T13:02:22;25.47;53.38
70271;SHT31;57680;54.292;18.598;2023-06-19T13:04:47;25.38;53.19
70271;SHT31;57680;54.292;18.598;2023-06-19T13:07:13;25.48;53.84
70271;SHT31;57680;54.292;18.598;2023-06-19T13:09:38;25.48;54.80
70271;SHT31;57680;54.292;18.598;2023-06-19T13:12:04;25.44;56.30
70271;SHT31;57680;54.292;18.598;2023-06-19T13:14:29;25.37;57.84
70271;SHT31;57680;54.292;18.598;2023-06-19T13:16:55;25.19;57.76
70271;SHT31;57680;54.292;18.598;2023-06-19T13:19:20;24.89;58.69
70271;SHT31;57680;54.292;18.598;2023-06-19T13:21:46;24.76;59.75
70271;SHT31;57680;54.292;18.598;2023-06-19T13:24:11;24.69;60.15
70271;SHT31;57680;54.292;18.598;2023-06-19T13:26:37;24.71;60.39
70271;SHT31;57680;54.292;18.598;2023-06-19T13:29:02;24.68;60.33
70271;SHT31;57680;54.292;18.598;2023-06-19T13:31:28;24.62;59.71
70271;SHT31;57680;54.292;18.598;2023-06-19T13:33:53;24.49;59.81
70271;SHT31;57680;54.292;18.598;2023-06-19T13:36:19;24.48;58.83
70271;SHT31;57680;54.292;18.598;2023-06-19T13:38:44;24.48;60.24
70271;SHT31;57680;54.292;18.598;2023-06-19T13:41:09;24.48;60.85
70271;SHT31;57680;54.292;18.598;2023-06-19T13:43:35;24.48;60.93
70271;SHT31;57680;54.292;18.598;2023-06-19T13:46:00;24.44;61.52
70271;SHT31;57680;54.292;18.598;2023-06-19T13:48:26;24.39;61.74
70271;SHT31;57680;54.292;18.598;2023-06-19T13:50:51;24.45;62.31
70271;SHT31;57680;54.292;18.598;2023-06-19T13:53:16;24.48;62.47
70271;SHT31;57680;54.292;18.598;2023-06-19T13:55:42;24.61;62.12
70271;SHT31;57680;54.292;18.598;2023-06-19T13:58:07;24.65;61.14
70271;SHT31;57680;54.292;18.598;2023-06-19T14:00:33;24.73;61.57
70271;SHT31;57680;54.292;18.598;2023-06-19T14:02:58;24.78;60.87
70271;SHT31;57680;54.292;18.598;2023-06-19T14:05:23;24.82;61.31
70271;SHT31;57680;54.292;18.598;2023-06-19T14:07:48;24.89;61.19
70271;SHT31;57680;54.292;18.598;2023-06-19T14:10:14;25.02;60.45
70271;SHT31;57680;54.292;18.598;2023-06-19T14:12:39;25.17;59.10
70271;SHT31;57680;54.292;18.598;2023-06-19T14:15:06;25.50;58.20
70271;SHT31;57680;54.292;18.598;2023-06-19T14:17:32;25.51;58.48
70271;SHT31;57680;54.292;18.598;2023-06-19T14:19:59;25.61;58.11
70271;SHT31;57680;54.292;18.598;2023-06-19T14:22:24;25.60;57.57
70271;SHT31;57680;54.292;18.598;2023-06-19T14:24:50;25.51;56.68
70271;SHT31;57680;54.292;18.598;2023-06-19T14:27:15;25.34;56.71
70271;SHT31;57680;54.292;18.598;2023-06-19T14:29:41;25.44;55.77
70271;SHT31;57680;54.292;18.598;2023-06-19T14:32:06;25.51;54.17
70271;SHT31;57680;54.292;18.598;2023-06-19T14:34:32;25.46;53.50
70271;SHT31;57680;54.292;18.598;2023-06-19T14:36:57;25.44;56.98
70271;SHT31;57680;54.292;18.598;2023-06-19T14:39:23;25.27;59.44
70271;SHT31;57680;54.292;18.598;2023-06-19T14:41:48;24.99;59.97
70271;SHT31;57680;54.292;18.598;2023-06-19T14:44:14;24.88;60.43
70271;SHT31;57680;54.292;18.598;2023-06-19T14:46:39;24.83;60.85
70271;SHT31;57680;54.292;18.598;2023-06-19T14:49:10;24.82;59.84
70271;SHT31;57680;54.292;18.598;2023-06-19T14:51:35;24.72;58.62
70271;SHT31;57680;54.292;18.598;2023-06-19T14:54:01;24.64;58.96
70271;SHT31;57680;54.292;18.598;2023-06-19T14:56:26;24.65;59.43
70271;SHT31;57680;54.292;18.598;2023-06-19T14:58:52;24.73;60.45
70271;SHT31;57680;54.292;18.598;2023-06-19T15:01:17;24.92;60.05
70271;SHT31;57680;54.292;18.598;2023-06-19T15:03:43;25.09;60.67
70271;SHT31;57680;54.292;18.598;2023-06-19T15:06:08;25.23;59.94
70271;SHT31;57680;54.292;18.598;2023-06-19T15:08:34;25.40;59.78
70271;SHT31;57680;54.292;18.598;2023-06-19T15:11:00;25.38;58.11
70271;SHT31;57680;54.292;18.598;2023-06-19T15:13:25;25.29;59.55
70271;SHT31;57680;54.292;18.598;2023-06-19T15:15:50;25.15;60.27
70271;SHT31;57680;54.292;18.598;2023-06-19T15:18:16;24.92;60.61
70271;SHT31;57680;54.292;18.598;2023-06-19T15:20:42;24.71;61.28